This is the latest recevied weather packets stored in our database for station/object JA6YCL-13. If no packets are shown the sender has not sent any weather packets the latest 10 day(s).
| Time | Temp. | Humidity | Pressure | Rain* | Wind** | Luminosity | Snow |
|---|---|---|---|---|---|---|---|
| 1778182298 | 17.22° C | 80% | 1010.3 hPa | 0 mm | - | - | - |
| 1778181468 | 17.78° C | 79% | 1010.8 hPa | 0 mm | - | - | - |
| 1778180608 | 17.78° C | 78% | 1010.6 hPa | 0 mm | - | - | - |
| 1778179763 | 17.78° C | 79% | 1010.4 hPa | 0 mm | - | - | - |
| 1778178938 | 17.78° C | 79% | 1010.5 hPa | 0 mm | - | - | - |
| 1778178128 | 17.78° C | 78% | 1010.6 hPa | 0 mm | - | - | - |
| 1778177383 | 18.33° C | 77% | 1010.6 hPa | 0 mm | - | - | - |
| 1778176575 | 18.33° C | 75% | 1010.9 hPa | 0 mm | - | - | - |
| 1778175793 | 18.89° C | 73% | 1011.1 hPa | 0 mm | - | - | - |
| 1778174950 | 18.89° C | 71% | 1011.1 hPa | 0 mm | - | - | - |
| 1778174198 | 18.89° C | 73% | 1011.1 hPa | 0 mm | - | - | - |
| 1778173323 | 18.89° C | 75% | 1011.6 hPa | 0 mm | - | - | - |
| 1778172442 | 18.89° C | 74% | 1011.6 hPa | 0 mm | - | - | - |
| 1778171563 | 19.44° C | 74% | 1011.6 hPa | 0 mm | - | - | - |
| 1778170661 | 18.89° C | 76% | 1011.8 hPa | 0 mm | - | - | - |
| 1778169937 | 18.89° C | 78% | 1011.8 hPa | 0 mm | - | - | - |
| 1778169058 | 18.89° C | 78% | 1011.9 hPa | 0 mm | - | - | - |
| 1778168263 | 18.89° C | 79% | 1011.7 hPa | 0 mm | - | - | - |
| 1778167518 | 18.89° C | 82% | 1011.9 hPa | 0 mm | - | - | - |
| 1778166763 | 18.89° C | 82% | 1011.8 hPa | 0 mm | - | - | - |
| 1778166035 | 18.89° C | 84% | 1012 hPa | 0 mm | - | - | - |
| 1778165198 | 18.33° C | 88% | 1012.1 hPa | 0 mm | - | - | - |
| 1778164363 | 18.33° C | 88% | 1012.2 hPa | 0 mm | - | - | - |
| 1778163642 | 18.33° C | 89% | 1012.3 hPa | 0 mm | - | - | - |
| 1778162848 | 18.33° C | 89% | 1012.2 hPa | 0 mm | - | - | - |
* Rain latest hour (hover to see other rain measurements)
** Current wind speed in m/s (hover to see current wind gust speed)